SAS1641 EKBI-EKCH
Flight info
| Callsign | SAS1641 |
|---|---|
| Flight time | N/A |
| Altitude | 19000 |
| Route | ABINO T56 TESPI |
| Aircraft | CRJ9/M-SDFGIRWY/S |
Departure
| Time | 2025-10-04 07:56 |
|---|---|
| Airport | Billund Airport (EKBI) |
Arrival
| Time | N/A |
|---|---|
| Airport | Copenhagen Kastrup Airport (EKCH) |
| Time | Latitude | Longitude | Altitude | Speed | Heading |
|---|---|---|---|---|---|
| 2025-10-04 07:27 | 55.74516 | 9.14414 | 214 ft | 0 kts | 357° |
| 2025-10-04 07:44 | 55.74489 | 9.14416 | 214 ft | 3 kts | 357° |
| 2025-10-04 07:44 | 55.74472 | 9.14418 | 217 ft | 3 kts | 359° |
| 2025-10-04 07:45 | 55.74441 | 9.14392 | 216 ft | 3 kts | 63° |
| 2025-10-04 07:45 | 55.74435 | 9.14333 | 217 ft | 1 kts | 86° |
| 2025-10-04 07:48 | 55.74436 | 9.14361 | 214 ft | 3 kts | 87° |
| 2025-10-04 07:49 | 55.74386 | 9.14463 | 218 ft | 10 kts | 174° |
| 2025-10-04 07:49 | 55.74303 | 9.14472 | 217 ft | 13 kts | 185° |
| 2025-10-04 07:49 | 55.74256 | 9.14354 | 218 ft | 9 kts | 265° |
| 2025-10-04 07:50 | 55.74252 | 9.14218 | 218 ft | 14 kts | 266° |
| 2025-10-04 07:50 | 55.74234 | 9.13684 | 221 ft | 14 kts | 266° |
| 2025-10-04 07:51 | 55.74192 | 9.13361 | 219 ft | 12 kts | 230° |
| 2025-10-04 07:51 | 55.74080 | 9.13257 | 220 ft | 0 kts | 183° |
| 2025-10-04 07:53 | 55.74023 | 9.13260 | 214 ft | 4 kts | 170° |
| 2025-10-04 07:53 | 55.73999 | 9.13279 | 216 ft | 4 kts | 139° |
| 2025-10-04 07:54 | 55.73978 | 9.13351 | 220 ft | 0 kts | 90° |
| 2025-10-04 07:54 | 55.73982 | 9.13507 | 214 ft | 40 kts | 86° |
| 2025-10-04 07:55 | 55.74054 | 9.16066 | 218 ft | 157 kts | 96° |
| 2025-10-04 07:55 | 55.74127 | 9.20418 | 1254 ft | 185 kts | 98° |
| 2025-10-04 07:56 | 55.76102 | 9.27312 | 3136 ft | 232 kts | 57° |
| 2025-10-04 07:56 | 55.76954 | 9.29764 | 3896 ft | 233 kts | 62° |
| 2025-10-04 07:57 | 55.78448 | 9.34865 | 5439 ft | 233 kts | 62° |
| 2025-10-04 07:57 | 55.79944 | 9.40042 | 6797 ft | 238 kts | 63° |
| 2025-10-04 07:58 | 55.81460 | 9.45353 | 8054 ft | 243 kts | 64° |
| 2025-10-04 07:58 | 55.82975 | 9.50826 | 9215 ft | 250 kts | 64° |
| 2025-10-04 07:59 | 55.84619 | 9.56363 | 10228 ft | 255 kts | 65° |
| 2025-10-04 07:59 | 55.86215 | 9.62036 | 11162 ft | 260 kts | 68° |
| 2025-10-04 08:00 | 55.87844 | 9.67819 | 12158 ft | 260 kts | 68° |
| 2025-10-04 08:00 | 55.89478 | 9.73544 | 13226 ft | 258 kts | 69° |
| 2025-10-04 08:01 | 55.91093 | 9.79240 | 14074 ft | 258 kts | 71° |
| 2025-10-04 08:01 | 55.92710 | 9.84995 | 14844 ft | 260 kts | 71° |
| 2025-10-04 08:02 | 55.94330 | 9.90756 | 15560 ft | 262 kts | 72° |
| 2025-10-04 08:02 | 55.95962 | 9.96613 | 16241 ft | 264 kts | 72° |
| 2025-10-04 08:03 | 55.96937 | 10.02608 | 16631 ft | 235 kts | 123° |
| 2025-10-04 08:03 | 55.96388 | 10.05187 | 16961 ft | 215 kts | 133° |
| 2025-10-04 08:04 | 55.94973 | 10.12882 | 17879 ft | 224 kts | 122° |
| 2025-10-04 08:04 | 55.94310 | 10.18378 | 18229 ft | 231 kts | 121° |
| 2025-10-04 08:05 | 55.93692 | 10.23171 | 18308 ft | 247 kts | 120° |
| 2025-10-04 08:05 | 55.92851 | 10.29425 | 18405 ft | 274 kts | 117° |
| 2025-10-04 08:06 | 55.91953 | 10.36448 | 18446 ft | 306 kts | 115° |
| 2025-10-04 08:06 | 55.90933 | 10.44252 | 18459 ft | 340 kts | 115° |
| 2025-10-04 08:07 | 55.89769 | 10.52752 | 18439 ft | 371 kts | 114° |
| 2025-10-04 08:07 | 55.89178 | 10.57325 | 18428 ft | 386 kts | 113° |
| 2025-10-04 08:08 | 55.87197 | 10.72011 | 18420 ft | 425 kts | 113° |
| 2025-10-04 08:08 | 55.85710 | 10.82480 | 18403 ft | 446 kts | 113° |
| 2025-10-04 08:09 | 55.84122 | 10.93397 | 18414 ft | 464 kts | 113° |
| 2025-10-04 08:09 | 55.82480 | 11.04522 | 19276 ft | 442 kts | 113° |
| 2025-10-04 08:10 | 55.81773 | 11.09620 | 19499 ft | 414 kts | 113° |
| 2025-10-04 08:10 | 55.79777 | 11.24358 | 17541 ft | 407 kts | 112° |
| 2025-10-04 08:11 | 55.79116 | 11.29243 | 16782 ft | 405 kts | 112° |
| 2025-10-04 08:11 | 55.77798 | 11.38886 | 15315 ft | 398 kts | 111° |
| 2025-10-04 08:12 | 55.75996 | 11.53059 | 13225 ft | 393 kts | 100° |
| 2025-10-04 08:12 | 55.75881 | 11.62782 | 11456 ft | 393 kts | 95° |
| 2025-10-04 08:13 | 55.75823 | 11.72449 | 9676 ft | 390 kts | 94° |
| 2025-10-04 08:13 | 55.75676 | 11.82019 | 7811 ft | 386 kts | 94° |
| 2025-10-04 08:14 | 55.75496 | 11.91405 | 5998 ft | 378 kts | 94° |
| 2025-10-04 08:14 | 55.75323 | 12.00618 | 4113 ft | 368 kts | 96° |
| 2025-10-04 08:15 | 55.75290 | 12.05120 | 3236 ft | 361 kts | 95° |
| 2025-10-04 08:15 | 55.75449 | 12.13517 | 2612 ft | 317 kts | 95° |
| 2025-10-04 08:16 | 55.75183 | 12.23889 | 2462 ft | 250 kts | 105° |
| 2025-10-04 08:16 | 55.74976 | 12.29676 | 2435 ft | 220 kts | 105° |
| 2025-10-04 08:17 | 55.74662 | 12.34674 | 2402 ft | 188 kts | 111° |
| 2025-10-04 08:17 | 55.75768 | 12.38862 | 2184 ft | 217 kts | 29° |
| 2025-10-04 08:18 | 55.78411 | 12.38224 | 2112 ft | 196 kts | 313° |
| 2025-10-04 08:18 | 55.81451 | 12.36928 | 2925 ft | 248 kts | 347° |
| 2025-10-04 08:19 | 55.84682 | 12.36033 | 4178 ft | 217 kts | 345° |
| 2025-10-04 08:19 | 55.87539 | 12.34687 | 3536 ft | 202 kts | 301° |
| 2025-10-04 08:20 | 55.87818 | 12.30520 | 3348 ft | 173 kts | 248° |
| 2025-10-04 08:20 | 55.87177 | 12.26314 | 3306 ft | 177 kts | 245° |
| 2025-10-04 08:21 | 55.86457 | 12.22103 | 3276 ft | 179 kts | 245° |
| 2025-10-04 08:21 | 55.85580 | 12.18024 | 3231 ft | 171 kts | 216° |
| 2025-10-04 08:22 | 55.83503 | 12.19215 | 3365 ft | 193 kts | 144° |
| 2025-10-04 08:22 | 55.82531 | 12.20951 | 3345 ft | 201 kts | 146° |
| 2025-10-04 08:23 | 55.80457 | 12.24524 | 3360 ft | 214 kts | 143° |
| 2025-10-04 08:23 | 55.78927 | 12.29450 | 3324 ft | 235 kts | 124° |
| 2025-10-04 08:24 | 55.76567 | 12.36482 | 3290 ft | 198 kts | 154° |
| 2025-10-04 08:24 | 55.74373 | 12.39113 | 3221 ft | 185 kts | 155° |
| 2025-10-04 08:25 | 55.72607 | 12.41347 | 3126 ft | 137 kts | 156° |
| 2025-10-04 08:25 | 55.71182 | 12.43054 | 2669 ft | 108 kts | 159° |
| 2025-10-04 08:26 | 55.70121 | 12.44282 | 2197 ft | 81 kts | 170° |
| 2025-10-04 08:26 | 55.69168 | 12.45716 | 1778 ft | 88 kts | 136° |
| 2025-10-04 08:27 | 55.68749 | 12.46769 | 1781 ft | 126 kts | 135° |
| 2025-10-04 08:27 | 55.68027 | 12.49513 | 2346 ft | 114 kts | 143° |
| 2025-10-04 08:28 | 55.66719 | 12.52436 | 2438 ft | 99 kts | 142° |
| 2025-10-04 08:28 | 55.65903 | 12.54782 | 1855 ft | 123 kts | 133° |
| 2025-10-04 08:29 | 55.64950 | 12.57210 | 1426 ft | 106 kts | 136° |
| 2025-10-04 08:29 | 55.64184 | 12.59315 | 1215 ft | 89 kts | 138° |
| 2025-10-04 08:30 | 55.63504 | 12.61502 | 1139 ft | 87 kts | 134° |
| 2025-10-04 08:30 | 55.63194 | 12.62346 | 655 ft | 84 kts | 140° |